sensor_id;sensor_type;location;lat;lon;timestamp;temperature;humidity
33831;DHT22;20137;48.834;8.732;2023-04-01T00:00:16;8.10;99.90
33831;DHT22;20137;48.834;8.732;2023-04-01T00:02:42;8.20;99.90
33831;DHT22;20137;48.834;8.732;2023-04-01T00:05:08;8.10;99.90
33831;DHT22;20137;48.834;8.732;2023-04-01T00:07:36;8.10;99.90
33831;DHT22;20137;48.834;8.732;2023-04-01T00:10:06;8.00;99.90
33831;DHT22;20137;48.834;8.732;2023-04-01T00:12:32;8.00;99.90
33831;DHT22;20137;48.834;8.732;2023-04-01T00:14:58;8.00;99.90
33831;DHT22;20137;48.834;8.732;2023-04-01T00:17:23;8.00;99.90
33831;DHT22;20137;48.834;8.732;2023-04-01T00:19:49;7.90;99.90
33831;DHT22;20137;48.834;8.732;2023-04-01T00:22:15;8.00;99.90
33831;DHT22;20137;48.834;8.732;2023-04-01T00:24:41;7.90;99.90
33831;DHT22;20137;48.834;8.732;2023-04-01T00:27:06;7.90;99.90
33831;DHT22;20137;48.834;8.732;2023-04-01T00:29:33;7.90;99.90
33831;DHT22;20137;48.834;8.732;2023-04-01T00:32:00;8.00;99.90
33831;DHT22;20137;48.834;8.732;2023-04-01T00:34:26;8.10;99.90
33831;DHT22;20137;48.834;8.732;2023-04-01T00:36:52;8.10;99.90
33831;DHT22;20137;48.834;8.732;2023-04-01T00:39:20;8.10;99.90
33831;DHT22;20137;48.834;8.732;2023-04-01T00:41:46;8.10;99.90
33831;DHT22;20137;48.834;8.732;2023-04-01T00:44:33;8.20;99.90
33831;DHT22;20137;48.834;8.732;2023-04-01T00:46:59;8.20;99.90
33831;DHT22;20137;48.834;8.732;2023-04-01T00:49:46;8.10;99.90
33831;DHT22;20137;48.834;8.732;2023-04-01T00:52:17;8.20;99.90
33831;DHT22;20137;48.834;8.732;2023-04-01T00:54:46;8.10;99.90
33831;DHT22;20137;48.834;8.732;2023-04-01T00:57:22;8.10;99.90
33831;DHT22;20137;48.834;8.732;2023-04-01T00:59:50;8.10;99.90
33831;DHT22;20137;48.834;8.732;2023-04-01T01:02:18;8.00;99.90
33831;DHT22;20137;48.834;8.732;2023-04-01T01:04:45;8.00;99.90
33831;DHT22;20137;48.834;8.732;2023-04-01T01:07:24;8.10;99.90
33831;DHT22;20137;48.834;8.732;2023-04-01T01:12:30;8.20;99.90
33831;DHT22;20137;48.834;8.732;2023-04-01T01:18:19;8.20;99.90
33831;DHT22;20137;48.834;8.732;2023-04-01T01:37:02;8.20;99.90
33831;DHT22;20137;48.834;8.732;2023-04-01T01:39:31;8.10;99.90
33831;DHT22;20137;48.834;8.732;2023-04-01T01:42:02;8.10;99.90
33831;DHT22;20137;48.834;8.732;2023-04-01T01:44:29;8.10;99.90
33831;DHT22;20137;48.834;8.732;2023-04-01T01:46:56;8.00;99.90
33831;DHT22;20137;48.834;8.732;2023-04-01T01:49:22;8.00;99.90
33831;DHT22;20137;48.834;8.732;2023-04-01T01:51:48;8.00;99.90
33831;DHT22;20137;48.834;8.732;2023-04-01T01:54:17;8.10;99.90
33831;DHT22;20137;48.834;8.732;2023-04-01T01:56:45;8.10;99.90
33831;DHT22;20137;48.834;8.732;2023-04-01T01:59:14;8.10;99.90
33831;DHT22;20137;48.834;8.732;2023-04-01T02:01:42;8.10;99.90
33831;DHT22;20137;48.834;8.732;2023-04-01T02:04:11;8.10;99.90
33831;DHT22;20137;48.834;8.732;2023-04-01T02:06:42;8.10;99.90
33831;DHT22;20137;48.834;8.732;2023-04-01T02:09:10;8.30;99.90
33831;DHT22;20137;48.834;8.732;2023-04-01T02:11:41;8.20;99.90
33831;DHT22;20137;48.834;8.732;2023-04-01T02:14:31;8.20;99.90
33831;DHT22;20137;48.834;8.732;2023-04-01T02:19:32;8.10;99.90
33831;DHT22;20137;48.834;8.732;2023-04-01T02:22:01;8.10;99.90
33831;DHT22;20137;48.834;8.732;2023-04-01T02:24:30;8.00;99.90
33831;DHT22;20137;48.834;8.732;2023-04-01T02:26:56;7.90;99.90
33831;DHT22;20137;48.834;8.732;2023-04-01T02:29:25;7.80;99.90
33831;DHT22;20137;48.834;8.732;2023-04-01T02:31:52;7.70;99.90
33831;DHT22;20137;48.834;8.732;2023-04-01T02:34:19;7.70;99.90
33831;DHT22;20137;48.834;8.732;2023-04-01T02:36:47;7.60;99.90
33831;DHT22;20137;48.834;8.732;2023-04-01T02:39:15;7.60;99.90
33831;DHT22;20137;48.834;8.732;2023-04-01T02:41:42;7.50;99.90
33831;DHT22;20137;48.834;8.732;2023-04-01T02:44:10;7.40;99.90
33831;DHT22;20137;48.834;8.732;2023-04-01T02:46:36;7.30;99.90
33831;DHT22;20137;48.834;8.732;2023-04-01T02:49:02;7.30;99.90
33831;DHT22;20137;48.834;8.732;2023-04-01T02:51:27;7.30;99.90
33831;DHT22;20137;48.834;8.732;2023-04-01T02:53:53;7.20;99.90
33831;DHT22;20137;48.834;8.732;2023-04-01T02:56:19;7.20;99.90
33831;DHT22;20137;48.834;8.732;2023-04-01T02:58:45;7.20;99.90
33831;DHT22;20137;48.834;8.732;2023-04-01T03:01:11;7.20;99.90
33831;DHT22;20137;48.834;8.732;2023-04-01T03:03:37;7.20;99.90
33831;DHT22;20137;48.834;8.732;2023-04-01T03:06:07;7.10;99.90
33831;DHT22;20137;48.834;8.732;2023-04-01T03:08:33;7.00;99.90
33831;DHT22;20137;48.834;8.732;2023-04-01T03:10:58;7.00;99.90
33831;DHT22;20137;48.834;8.732;2023-04-01T03:13:24;7.00;99.90
33831;DHT22;20137;48.834;8.732;2023-04-01T03:15:50;7.00;99.90
33831;DHT22;20137;48.834;8.732;2023-04-01T03:18:15;6.90;99.90
33831;DHT22;20137;48.834;8.732;2023-04-01T03:20:41;6.90;99.90
33831;DHT22;20137;48.834;8.732;2023-04-01T03:23:07;6.90;99.90
33831;DHT22;20137;48.834;8.732;2023-04-01T03:25:33;6.90;99.90
33831;DHT22;20137;48.834;8.732;2023-04-01T03:27:59;7.00;99.90
33831;DHT22;20137;48.834;8.732;2023-04-01T03:30:25;7.00;99.90
33831;DHT22;20137;48.834;8.732;2023-04-01T03:32:51;6.90;99.90
33831;DHT22;20137;48.834;8.732;2023-04-01T03:35:17;7.10;99.90
33831;DHT22;20137;48.834;8.732;2023-04-01T03:37:43;7.10;99.90
33831;DHT22;20137;48.834;8.732;2023-04-01T03:40:09;7.10;99.90
33831;DHT22;20137;48.834;8.732;2023-04-01T03:42:35;7.10;99.90
33831;DHT22;20137;48.834;8.732;2023-04-01T03:45:02;7.10;99.90
33831;DHT22;20137;48.834;8.732;2023-04-01T03:47:28;7.10;99.90
33831;DHT22;20137;48.834;8.732;2023-04-01T03:49:54;7.10;99.90
33831;DHT22;20137;48.834;8.732;2023-04-01T03:52:19;7.10;99.90
33831;DHT22;20137;48.834;8.732;2023-04-01T03:54:45;7.10;99.90
33831;DHT22;20137;48.834;8.732;2023-04-01T03:57:11;7.20;99.90
33831;DHT22;20137;48.834;8.732;2023-04-01T03:59:37;7.30;99.90
33831;DHT22;20137;48.834;8.732;2023-04-01T04:02:03;7.30;99.90
33831;DHT22;20137;48.834;8.732;2023-04-01T04:04:28;7.40;99.90
33831;DHT22;20137;48.834;8.732;2023-04-01T04:06:54;7.40;99.90
33831;DHT22;20137;48.834;8.732;2023-04-01T04:09:20;7.40;99.90
33831;DHT22;20137;48.834;8.732;2023-04-01T04:11:46;7.50;99.90
33831;DHT22;20137;48.834;8.732;2023-04-01T04:14:11;7.60;99.90
33831;DHT22;20137;48.834;8.732;2023-04-01T04:16:37;7.60;99.90
33831;DHT22;20137;48.834;8.732;2023-04-01T04:19:03;7.60;99.90
33831;DHT22;20137;48.834;8.732;2023-04-01T04:21:29;7.60;99.90
33831;DHT22;20137;48.834;8.732;2023-04-01T04:23:55;7.60;99.90
33831;DHT22;20137;48.834;8.732;2023-04-01T04:26:20;7.50;99.90
33831;DHT22;20137;48.834;8.732;2023-04-01T04:28:46;7.50;99.90
33831;DHT22;20137;48.834;8.732;2023-04-01T04:31:12;7.50;99.90
33831;DHT22;20137;48.834;8.732;2023-04-01T04:33:43;7.50;99.90
33831;DHT22;20137;48.834;8.732;2023-04-01T04:36:08;7.50;99.90
33831;DHT22;20137;48.834;8.732;2023-04-01T04:38:34;7.40;99.90
33831;DHT22;20137;48.834;8.732;2023-04-01T04:41:00;7.40;99.90
33831;DHT22;20137;48.834;8.732;2023-04-01T04:43:25;7.30;99.90
33831;DHT22;20137;48.834;8.732;2023-04-01T04:45:51;7.30;99.90
33831;DHT22;20137;48.834;8.732;2023-04-01T04:48:17;7.30;99.90
33831;DHT22;20137;48.834;8.732;2023-04-01T04:50:48;7.40;99.90
33831;DHT22;20137;48.834;8.732;2023-04-01T04:53:15;7.40;99.90
33831;DHT22;20137;48.834;8.732;2023-04-01T04:55:46;7.40;99.90
33831;DHT22;20137;48.834;8.732;2023-04-01T04:58:12;7.30;99.90
33831;DHT22;20137;48.834;8.732;2023-04-01T05:00:38;7.20;99.90
33831;DHT22;20137;48.834;8.732;2023-04-01T05:03:04;7.20;99.90
33831;DHT22;20137;48.834;8.732;2023-04-01T05:05:29;7.20;99.90
33831;DHT22;20137;48.834;8.732;2023-04-01T05:07:55;7.10;99.90
33831;DHT22;20137;48.834;8.732;2023-04-01T05:10:21;7.10;99.90
33831;DHT22;20137;48.834;8.732;2023-04-01T05:12:46;7.10;99.90
33831;DHT22;20137;48.834;8.732;2023-04-01T05:15:12;7.10;99.90
33831;DHT22;20137;48.834;8.732;2023-04-01T05:17:38;7.20;99.90
33831;DHT22;20137;48.834;8.732;2023-04-01T05:20:04;7.20;99.90
33831;DHT22;20137;48.834;8.732;2023-04-01T05:22:30;7.20;99.90
33831;DHT22;20137;48.834;8.732;2023-04-01T05:24:55;7.20;99.90
33831;DHT22;20137;48.834;8.732;2023-04-01T05:27:21;7.20;99.90
33831;DHT22;20137;48.834;8.732;2023-04-01T05:29:47;7.20;99.90
33831;DHT22;20137;48.834;8.732;2023-04-01T05:32:12;7.30;99.90
33831;DHT22;20137;48.834;8.732;2023-04-01T05:34:38;7.30;99.90
33831;DHT22;20137;48.834;8.732;2023-04-01T05:37:04;7.40;99.90
33831;DHT22;20137;48.834;8.732;2023-04-01T05:39:29;7.40;99.90
33831;DHT22;20137;48.834;8.732;2023-04-01T05:41:55;7.40;99.90
33831;DHT22;20137;48.834;8.732;2023-04-01T05:44:21;7.50;99.90
33831;DHT22;20137;48.834;8.732;2023-04-01T05:46:47;7.60;99.90
33831;DHT22;20137;48.834;8.732;2023-04-01T05:49:12;7.60;99.90
33831;DHT22;20137;48.834;8.732;2023-04-01T05:51:38;7.70;99.90
33831;DHT22;20137;48.834;8.732;2023-04-01T05:54:05;7.70;99.90
33831;DHT22;20137;48.834;8.732;2023-04-01T05:56:30;7.70;99.90
33831;DHT22;20137;48.834;8.732;2023-04-01T05:58:56;7.70;99.90
33831;DHT22;20137;48.834;8.732;2023-04-01T06:01:22;7.70;99.90
33831;DHT22;20137;48.834;8.732;2023-04-01T06:03:47;7.70;99.90
33831;DHT22;20137;48.834;8.732;2023-04-01T06:06:29;7.70;99.90
33831;DHT22;20137;48.834;8.732;2023-04-01T06:08:58;7.70;99.90
33831;DHT22;20137;48.834;8.732;2023-04-01T06:14:27;7.70;99.90
33831;DHT22;20137;48.834;8.732;2023-04-01T06:17:26;7.60;99.90
33831;DHT22;20137;48.834;8.732;2023-04-01T06:22:47;7.60;99.90
33831;DHT22;20137;48.834;8.732;2023-04-01T06:25:41;7.60;99.90
33831;DHT22;20137;48.834;8.732;2023-04-01T06:28:29;7.60;99.90
33831;DHT22;20137;48.834;8.732;2023-04-01T06:48:18;7.40;99.90
33831;DHT22;20137;48.834;8.732;2023-04-01T06:51:12;7.40;99.90
33831;DHT22;20137;48.834;8.732;2023-04-01T06:54:04;7.40;99.90
33831;DHT22;20137;48.834;8.732;2023-04-01T06:56:32;7.40;99.90
33831;DHT22;20137;48.834;8.732;2023-04-01T07:01:42;7.40;99.90
33831;DHT22;20137;48.834;8.732;2023-04-01T07:04:11;7.40;99.90
33831;DHT22;20137;48.834;8.732;2023-04-01T07:06:44;7.40;99.90
33831;DHT22;20137;48.834;8.732;2023-04-01T07:09:25;7.40;99.90
33831;DHT22;20137;48.834;8.732;2023-04-01T07:11:53;7.40;99.90
33831;DHT22;20137;48.834;8.732;2023-04-01T07:14:23;7.40;99.90
33831;DHT22;20137;48.834;8.732;2023-04-01T07:17:25;7.50;99.90
33831;DHT22;20137;48.834;8.732;2023-04-01T07:20:11;7.60;99.90
33831;DHT22;20137;48.834;8.732;2023-04-01T07:22:40;7.70;99.90
33831;DHT22;20137;48.834;8.732;2023-04-01T07:25:27;7.80;99.90
33831;DHT22;20137;48.834;8.732;2023-04-01T07:28:01;8.00;99.90
33831;DHT22;20137;48.834;8.732;2023-04-01T07:30:33;8.10;99.90
33831;DHT22;20137;48.834;8.732;2023-04-01T07:33:24;8.00;99.90
33831;DHT22;20137;48.834;8.732;2023-04-01T07:36:03;8.10;99.90
33831;DHT22;20137;48.834;8.732;2023-04-01T07:52:32;8.30;99.90
33831;DHT22;20137;48.834;8.732;2023-04-01T08:00:27;8.30;99.90
33831;DHT22;20137;48.834;8.732;2023-04-01T08:03:30;8.30;99.90
33831;DHT22;20137;48.834;8.732;2023-04-01T08:17:42;8.30;99.90
33831;DHT22;20137;48.834;8.732;2023-04-01T08:22:43;8.00;99.90
33831;DHT22;20137;48.834;8.732;2023-04-01T08:25:21;7.80;99.90
33831;DHT22;20137;48.834;8.732;2023-04-01T08:27:53;7.80;99.90
33831;DHT22;20137;48.834;8.732;2023-04-01T08:30:31;7.80;99.90
33831;DHT22;20137;48.834;8.732;2023-04-01T08:35:43;7.90;99.90
33831;DHT22;20137;48.834;8.732;2023-04-01T08:38:16;7.70;99.90
33831;DHT22;20137;48.834;8.732;2023-04-01T08:40:51;7.80;99.90
33831;DHT22;20137;48.834;8.732;2023-04-01T08:46:29;7.90;99.90
33831;DHT22;20137;48.834;8.732;2023-04-01T08:49:11;8.10;99.90
33831;DHT22;20137;48.834;8.732;2023-04-01T08:54:29;8.50;99.90
33831;DHT22;20137;48.834;8.732;2023-04-01T09:26:08;8.80;99.90
33831;DHT22;20137;48.834;8.732;2023-04-01T09:29:05;8.80;99.90
33831;DHT22;20137;48.834;8.732;2023-04-01T09:34:41;8.80;99.90
33831;DHT22;20137;48.834;8.732;2023-04-01T09:40:21;9.00;99.90
33831;DHT22;20137;48.834;8.732;2023-04-01T10:14:03;9.40;99.90
33831;DHT22;20137;48.834;8.732;2023-04-01T10:19:39;9.40;99.90
33831;DHT22;20137;48.834;8.732;2023-04-01T10:36:22;9.40;99.90
33831;DHT22;20137;48.834;8.732;2023-04-01T10:47:32;9.90;99.90
33831;DHT22;20137;48.834;8.732;2023-04-01T10:53:11;10.00;99.90
33831;DHT22;20137;48.834;8.732;2023-04-01T10:56:00;10.10;99.90
33831;DHT22;20137;48.834;8.732;2023-04-01T11:02:06;10.20;99.90
33831;DHT22;20137;48.834;8.732;2023-04-01T11:07:44;10.40;99.90
33831;DHT22;20137;48.834;8.732;2023-04-01T11:16:55;10.90;99.90
33831;DHT22;20137;48.834;8.732;2023-04-01T11:22:10;10.70;99.90
33831;DHT22;20137;48.834;8.732;2023-04-01T11:30:40;10.10;99.90
33831;DHT22;20137;48.834;8.732;2023-04-01T11:36:26;10.00;99.90
33831;DHT22;20137;48.834;8.732;2023-04-01T11:44:23;10.10;99.90
33831;DHT22;20137;48.834;8.732;2023-04-01T11:49:36;9.90;99.90
33831;DHT22;20137;48.834;8.732;2023-04-01T12:14:03;10.50;99.90
33831;DHT22;20137;48.834;8.732;2023-04-01T12:33:54;10.60;99.90
33831;DHT22;20137;48.834;8.732;2023-04-01T12:44:54;10.40;99.90
33831;DHT22;20137;48.834;8.732;2023-04-01T12:50:33;10.20;99.90
33831;DHT22;20137;48.834;8.732;2023-04-01T12:56:13;10.40;99.90
33831;DHT22;20137;48.834;8.732;2023-04-01T12:59:04;10.50;99.90
33831;DHT22;20137;48.834;8.732;2023-04-01T13:04:12;10.60;99.90
33831;DHT22;20137;48.834;8.732;2023-04-01T13:09:24;11.10;99.90
33831;DHT22;20137;48.834;8.732;2023-04-01T13:17:06;10.70;99.90
33831;DHT22;20137;48.834;8.732;2023-04-01T13:22:36;10.60;99.90
33831;DHT22;20137;48.834;8.732;2023-04-01T13:28:12;10.20;99.90
33831;DHT22;20137;48.834;8.732;2023-04-01T13:30:59;10.00;99.90
33831;DHT22;20137;48.834;8.732;2023-04-01T13:33:50;9.90;99.90
33831;DHT22;20137;48.834;8.732;2023-04-01T13:36:31;10.00;99.90
33831;DHT22;20137;48.834;8.732;2023-04-01T13:44:42;10.00;99.90
33831;DHT22;20137;48.834;8.732;2023-04-01T13:50:44;9.70;99.90
33831;DHT22;20137;48.834;8.732;2023-04-01T13:58:20;9.20;99.90
33831;DHT22;20137;48.834;8.732;2023-04-01T14:01:17;9.10;99.90
33831;DHT22;20137;48.834;8.732;2023-04-01T14:06:47;9.10;99.90
33831;DHT22;20137;48.834;8.732;2023-04-01T14:09:57;9.30;99.90
33831;DHT22;20137;48.834;8.732;2023-04-01T14:12:51;9.40;99.90
33831;DHT22;20137;48.834;8.732;2023-04-01T14:15:46;9.70;99.90
33831;DHT22;20137;48.834;8.732;2023-04-01T14:21:17;9.60;99.90
33831;DHT22;20137;48.834;8.732;2023-04-01T14:24:06;9.60;99.90
33831;DHT22;20137;48.834;8.732;2023-04-01T14:27:12;9.70;99.90
33831;DHT22;20137;48.834;8.732;2023-04-01T14:35:31;9.50;99.90
33831;DHT22;20137;48.834;8.732;2023-04-01T14:40:56;9.50;99.90
33831;DHT22;20137;48.834;8.732;2023-04-01T14:49:32;9.70;99.90
33831;DHT22;20137;48.834;8.732;2023-04-01T14:52:27;9.50;99.90
33831;DHT22;20137;48.834;8.732;2023-04-01T14:54:54;9.60;99.90
33831;DHT22;20137;48.834;8.732;2023-04-01T14:57:30;9.60;99.90
33831;DHT22;20137;48.834;8.732;2023-04-01T15:00:14;9.60;99.90
33831;DHT22;20137;48.834;8.732;2023-04-01T15:02:52;9.60;99.90
33831;DHT22;20137;48.834;8.732;2023-04-01T15:16:19;9.70;99.90
33831;DHT22;20137;48.834;8.732;2023-04-01T15:34:57;9.50;99.90
33831;DHT22;20137;48.834;8.732;2023-04-01T15:37:55;9.60;99.90
33831;DHT22;20137;48.834;8.732;2023-04-01T15:40:41;9.50;99.90
33831;DHT22;20137;48.834;8.732;2023-04-01T15:43:28;9.40;99.90
33831;DHT22;20137;48.834;8.732;2023-04-01T15:46:36;9.30;99.90
33831;DHT22;20137;48.834;8.732;2023-04-01T15:49:14;9.30;99.90
33831;DHT22;20137;48.834;8.732;2023-04-01T16:00:20;9.20;99.90
33831;DHT22;20137;48.834;8.732;2023-04-01T16:16:19;8.90;99.90
33831;DHT22;20137;48.834;8.732;2023-04-01T16:24:15;8.80;99.90
33831;DHT22;20137;48.834;8.732;2023-04-01T16:26:55;8.80;99.90
33831;DHT22;20137;48.834;8.732;2023-04-01T16:29:46;8.90;99.90
33831;DHT22;20137;48.834;8.732;2023-04-01T16:35:28;9.00;99.90
33831;DHT22;20137;48.834;8.732;2023-04-01T16:38:12;9.20;99.90
33831;DHT22;20137;48.834;8.732;2023-04-01T16:41:00;9.30;99.90
33831;DHT22;20137;48.834;8.732;2023-04-01T16:43:38;9.30;99.90
33831;DHT22;20137;48.834;8.732;2023-04-01T16:46:32;9.30;99.90
33831;DHT22;20137;48.834;8.732;2023-04-01T16:51:57;9.20;99.90
33831;DHT22;20137;48.834;8.732;2023-04-01T16:59:53;9.00;99.90
33831;DHT22;20137;48.834;8.732;2023-04-01T17:02:28;8.90;99.90
33831;DHT22;20137;48.834;8.732;2023-04-01T17:04:59;8.90;99.90
33831;DHT22;20137;48.834;8.732;2023-04-01T17:10:47;8.80;99.90
33831;DHT22;20137;48.834;8.732;2023-04-01T17:21:09;8.60;99.90
33831;DHT22;20137;48.834;8.732;2023-04-01T17:26:39;8.40;99.90
33831;DHT22;20137;48.834;8.732;2023-04-01T17:29:36;8.30;99.90
33831;DHT22;20137;48.834;8.732;2023-04-01T17:32:21;8.20;99.90
33831;DHT22;20137;48.834;8.732;2023-04-01T17:34:59;8.00;99.90
33831;DHT22;20137;48.834;8.732;2023-04-01T17:40:20;7.90;99.90
33831;DHT22;20137;48.834;8.732;2023-04-01T17:45:41;7.80;99.90
33831;DHT22;20137;48.834;8.732;2023-04-01T17:55:15;7.50;99.90
33831;DHT22;20137;48.834;8.732;2023-04-01T18:03:00;7.50;99.90
33831;DHT22;20137;48.834;8.732;2023-04-01T18:05:30;7.60;99.90
33831;DHT22;20137;48.834;8.732;2023-04-01T18:08:08;7.40;99.90
33831;DHT22;20137;48.834;8.732;2023-04-01T18:10:43;7.30;99.90
33831;DHT22;20137;48.834;8.732;2023-04-01T18:26:41;7.10;99.90
33831;DHT22;20137;48.834;8.732;2023-04-01T18:29:36;7.10;99.90
33831;DHT22;20137;48.834;8.732;2023-04-01T18:37:31;7.00;99.90
33831;DHT22;20137;48.834;8.732;2023-04-01T18:40:23;7.00;99.90
33831;DHT22;20137;48.834;8.732;2023-04-01T18:46:00;6.80;99.90
33831;DHT22;20137;48.834;8.732;2023-04-01T18:50:59;6.70;99.90
33831;DHT22;20137;48.834;8.732;2023-04-01T18:58:46;6.80;99.90
33831;DHT22;20137;48.834;8.732;2023-04-01T19:04:32;7.00;99.90
33831;DHT22;20137;48.834;8.732;2023-04-01T19:07:21;7.00;99.90
33831;DHT22;20137;48.834;8.732;2023-04-01T19:09:49;7.00;99.90
33831;DHT22;20137;48.834;8.732;2023-04-01T19:21:36;7.10;99.90
33831;DHT22;20137;48.834;8.732;2023-04-01T19:43:00;7.30;99.90
33831;DHT22;20137;48.834;8.732;2023-04-01T19:45:45;7.40;99.90
33831;DHT22;20137;48.834;8.732;2023-04-01T19:48:44;7.40;99.90
33831;DHT22;20137;48.834;8.732;2023-04-01T19:51:37;7.50;99.90
33831;DHT22;20137;48.834;8.732;2023-04-01T19:54:27;7.50;99.90
33831;DHT22;20137;48.834;8.732;2023-04-01T19:57:23;7.50;99.90
33831;DHT22;20137;48.834;8.732;2023-04-01T20:00:02;7.50;99.90
33831;DHT22;20137;48.834;8.732;2023-04-01T20:03:01;7.50;99.90
33831;DHT22;20137;48.834;8.732;2023-04-01T20:05:51;7.50;99.90
33831;DHT22;20137;48.834;8.732;2023-04-01T20:11:18;7.40;99.90
33831;DHT22;20137;48.834;8.732;2023-04-01T20:19:43;7.10;99.90
33831;DHT22;20137;48.834;8.732;2023-04-01T20:22:34;7.20;99.90
33831;DHT22;20137;48.834;8.732;2023-04-01T20:25:26;7.10;99.90
33831;DHT22;20137;48.834;8.732;2023-04-01T20:31:02;7.00;99.90
33831;DHT22;20137;48.834;8.732;2023-04-01T20:36:23;7.00;99.90
33831;DHT22;20137;48.834;8.732;2023-04-01T20:44:34;6.90;99.90
33831;DHT22;20137;48.834;8.732;2023-04-01T20:47:15;6.80;99.90
33831;DHT22;20137;48.834;8.732;2023-04-01T20:49:56;6.90;99.90
33831;DHT22;20137;48.834;8.732;2023-04-01T20:52:41;6.80;99.90
33831;DHT22;20137;48.834;8.732;2023-04-01T21:01:40;6.90;99.90
33831;DHT22;20137;48.834;8.732;2023-04-01T21:23:01;6.80;99.90
33831;DHT22;20137;48.834;8.732;2023-04-01T21:25:47;6.90;99.90
33831;DHT22;20137;48.834;8.732;2023-04-01T21:28:59;6.80;99.90
33831;DHT22;20137;48.834;8.732;2023-04-01T21:31:40;6.90;99.90
33831;DHT22;20137;48.834;8.732;2023-04-01T21:34:35;7.00;99.90
33831;DHT22;20137;48.834;8.732;2023-04-01T21:43:04;7.00;99.90
33831;DHT22;20137;48.834;8.732;2023-04-01T21:48:34;7.00;99.90
33831;DHT22;20137;48.834;8.732;2023-04-01T22:11:30;7.20;99.90
33831;DHT22;20137;48.834;8.732;2023-04-01T22:14:19;7.20;99.90
33831;DHT22;20137;48.834;8.732;2023-04-01T22:17:16;7.20;99.90
33831;DHT22;20137;48.834;8.732;2023-04-01T22:19:59;7.20;99.90
33831;DHT22;20137;48.834;8.732;2023-04-01T22:23:05;7.20;99.90
33831;DHT22;20137;48.834;8.732;2023-04-01T22:25:45;7.20;99.90
33831;DHT22;20137;48.834;8.732;2023-04-01T22:28:21;7.20;99.90
33831;DHT22;20137;48.834;8.732;2023-04-01T22:30:50;7.30;99.90
33831;DHT22;20137;48.834;8.732;2023-04-01T22:33:26;7.20;99.90
33831;DHT22;20137;48.834;8.732;2023-04-01T22:41:44;7.10;99.90
33831;DHT22;20137;48.834;8.732;2023-04-01T22:44:44;7.10;99.90
33831;DHT22;20137;48.834;8.732;2023-04-01T22:50:34;7.20;99.90
33831;DHT22;20137;48.834;8.732;2023-04-01T22:56:05;7.20;99.90
33831;DHT22;20137;48.834;8.732;2023-04-01T22:58:55;7.20;99.90
33831;DHT22;20137;48.834;8.732;2023-04-01T23:01:29;7.10;99.90
33831;DHT22;20137;48.834;8.732;2023-04-01T23:03:58;7.10;99.90
33831;DHT22;20137;48.834;8.732;2023-04-01T23:06:41;7.20;99.90
33831;DHT22;20137;48.834;8.732;2023-04-01T23:09:18;7.10;99.90
33831;DHT22;20137;48.834;8.732;2023-04-01T23:11:57;7.10;99.90
33831;DHT22;20137;48.834;8.732;2023-04-01T23:14:35;7.20;99.90
33831;DHT22;20137;48.834;8.732;2023-04-01T23:17:25;7.20;99.90
33831;DHT22;20137;48.834;8.732;2023-04-01T23:35:53;7.20;99.90
33831;DHT22;20137;48.834;8.732;2023-04-01T23:38:26;7.20;99.90
33831;DHT22;20137;48.834;8.732;2023-04-01T23:40:53;7.30;99.90
33831;DHT22;20137;48.834;8.732;2023-04-01T23:43:40;7.30;99.90
33831;DHT22;20137;48.834;8.732;2023-04-01T23:46:08;7.30;99.90
33831;DHT22;20137;48.834;8.732;2023-04-01T23:48:42;7.20;99.90
33831;DHT22;20137;48.834;8.732;2023-04-01T23:51:28;7.20;99.90
33831;DHT22;20137;48.834;8.732;2023-04-01T23:54:02;7.20;99.90
33831;DHT22;20137;48.834;8.732;2023-04-01T23:56:38;7.20;99.90
33831;DHT22;20137;48.834;8.732;2023-04-01T23:59:03;7.30;99.90
